高雄國際航空站 - ATIS

METAR RCKH 191900Z 08002KT 9999 FEW015 BKN035 26/23 Q1009 NOSIG RMK A2980=

站台狀態:Online
最後更新:2024-04-20 03:00:02